createdAt,value
2023-05-08T00:01:00.492Z,5.40
2023-05-08T00:03:27.463Z,4.88
2023-05-08T00:05:57.099Z,4.90
2023-05-08T00:08:23.841Z,4.22
2023-05-08T00:10:50.609Z,5.45
2023-05-08T00:13:17.464Z,4.10
2023-05-08T00:15:44.277Z,5.75
2023-05-08T00:18:11.168Z,5.20
2023-05-08T00:20:37.908Z,4.65
2023-05-08T00:23:05.028Z,6.35
2023-05-08T00:25:32.051Z,4.35
2023-05-08T00:27:59.485Z,5.20
2023-05-08T00:30:26.727Z,4.82
2023-05-08T00:32:53.543Z,4.05
2023-05-08T00:35:20.344Z,4.85
2023-05-08T00:37:47.087Z,4.88
2023-05-08T00:40:13.981Z,5.22
2023-05-08T00:42:40.966Z,5.07
2023-05-08T00:45:08.914Z,4.07
2023-05-08T00:47:35.802Z,4.40
2023-05-08T00:50:03.248Z,3.60
2023-05-08T00:52:32.016Z,4.18
2023-05-08T00:55:00.720Z,4.22
2023-05-08T00:57:29.535Z,4.22
2023-05-08T00:59:57.151Z,4.75
2023-05-08T01:02:24.224Z,4.40
2023-05-08T01:04:52.377Z,3.92
2023-05-08T01:07:19.602Z,3.60
2023-05-08T01:09:46.454Z,4.03
2023-05-08T01:12:47.067Z,4.20
2023-05-08T01:15:20.907Z,4.45
2023-05-08T01:18:11.299Z,3.42
2023-05-08T01:21:10.930Z,3.72
2023-05-08T01:24:17.256Z,3.50
2023-05-08T01:27:04.825Z,3.78
2023-05-08T01:30:05.088Z,3.92
2023-05-08T01:32:43.638Z,3.67
2023-05-08T01:35:15.127Z,3.40
2023-05-08T01:38:07.650Z,3.30
2023-05-08T01:40:52.631Z,5.03
2023-05-08T01:43:41.924Z,4.63
2023-05-08T01:46:16.691Z,4.07
2023-05-08T01:49:15.268Z,3.53
2023-05-08T01:51:45.807Z,4.18
2023-05-08T01:54:22.523Z,4.40
2023-05-08T01:56:52.857Z,3.88
2023-05-08T01:59:23.185Z,4.35
2023-05-08T02:01:52.900Z,4.32
2023-05-08T02:04:22.088Z,4.38
2023-05-08T02:06:51.179Z,3.80
2023-05-08T02:09:19.171Z,3.72
2023-05-08T02:11:47.111Z,3.95
2023-05-08T02:14:20.390Z,3.58
2023-05-08T02:16:50.646Z,3.83
2023-05-08T02:19:21.915Z,4.70
2023-05-08T02:21:50.167Z,4.47
2023-05-08T02:24:17.871Z,5.03
2023-05-08T02:26:46.049Z,3.85
2023-05-08T02:29:13.814Z,4.53
2023-05-08T02:31:41.750Z,4.95
2023-05-08T02:34:10.418Z,4.43
2023-05-08T02:36:38.157Z,4.75
2023-05-08T02:39:08.355Z,4.80
2023-05-08T02:41:35.955Z,5.68
2023-05-08T02:44:02.861Z,4.85
2023-05-08T02:46:48.384Z,5.32
2023-05-08T02:49:29.099Z,5.45
2023-05-08T02:52:17.967Z,4.78
2023-05-08T02:55:22.946Z,5.00
2023-05-08T02:58:06.223Z,5.32
2023-05-08T03:03:11.928Z,5.30
2023-05-08T03:05:43.035Z,5.70
2023-05-08T03:08:20.956Z,5.28
2023-05-08T03:10:53.966Z,4.95
2023-05-08T03:13:21.389Z,5.13
2023-05-08T03:15:54.833Z,5.25
2023-05-08T03:18:26.642Z,4.97
2023-05-08T03:20:56.129Z,5.00
2023-05-08T03:23:26.265Z,5.82
2023-05-08T03:25:55.061Z,5.05
2023-05-08T03:28:23.549Z,4.35
2023-05-08T03:30:51.804Z,3.85
2023-05-08T03:33:21.650Z,4.32
2023-05-08T03:35:49.161Z,4.10
2023-05-08T03:38:16.316Z,4.43
2023-05-08T03:40:43.239Z,3.50
2023-05-08T03:43:12.046Z,4.40
2023-05-08T03:45:40.960Z,4.45
2023-05-08T03:48:09.367Z,4.43
2023-05-08T03:50:38.519Z,4.22
2023-05-08T03:53:08.390Z,4.10
2023-05-08T03:55:36.427Z,4.57
2023-05-08T03:58:22.968Z,4.05
2023-05-08T04:01:13.793Z,3.33
2023-05-08T04:04:10.651Z,3.88
2023-05-08T04:06:58.270Z,4.15
2023-05-08T04:09:55.369Z,3.25
2023-05-08T04:12:44.366Z,7.53
2023-05-08T04:15:22.973Z,9.02
2023-05-08T04:17:56.003Z,8.80
2023-05-08T04:20:27.216Z,8.55
2023-05-08T04:22:55.776Z,8.57
2023-05-08T04:25:23.795Z,7.07
2023-05-08T04:27:51.583Z,7.32
2023-05-08T04:30:19.495Z,7.63
2023-05-08T04:32:47.544Z,6.13
2023-05-08T04:35:16.158Z,6.00
2023-05-08T04:37:44.213Z,5.30
2023-05-08T04:40:11.588Z,5.43
2023-05-08T04:42:43.409Z,5.28
2023-05-08T04:45:11.831Z,5.07
2023-05-08T04:47:39.605Z,5.03
2023-05-08T04:50:06.858Z,4.55
2023-05-08T04:52:35.005Z,4.38
2023-05-08T04:55:01.925Z,4.85
2023-05-08T04:57:30.436Z,4.55
2023-05-08T04:59:57.274Z,4.15
2023-05-08T05:02:26.391Z,4.07
2023-05-08T05:04:53.150Z,4.70
2023-05-08T05:07:19.953Z,3.90
2023-05-08T05:09:47.295Z,5.25
2023-05-08T05:12:14.427Z,3.70
2023-05-08T05:14:41.398Z,3.13
2023-05-08T05:17:08.296Z,4.10
2023-05-08T05:19:35.009Z,3.58
2023-05-08T05:22:01.944Z,3.25
2023-05-08T05:24:30.040Z,2.80
2023-05-08T05:26:57.573Z,3.92
2023-05-08T05:29:24.695Z,3.22
2023-05-08T05:31:51.609Z,3.20
2023-05-08T05:34:18.389Z,2.75
2023-05-08T05:36:45.274Z,2.85
2023-05-08T05:41:55.403Z,2.42
2023-05-08T05:44:22.199Z,3.03
2023-05-08T05:46:48.969Z,2.65
2023-05-08T05:49:16.831Z,3.03
2023-05-08T05:51:43.932Z,2.72
2023-05-08T05:54:10.749Z,2.75
2023-05-08T05:56:37.778Z,2.72
2023-05-08T05:59:05.103Z,2.58
2023-05-08T06:01:32.212Z,2.67
2023-05-08T06:03:59.107Z,2.03
2023-05-08T06:06:25.867Z,3.03
2023-05-08T06:08:54.241Z,2.15
2023-05-08T06:11:23.595Z,2.20
2023-05-08T06:13:50.763Z,1.85
2023-05-08T06:16:20.805Z,2.05
2023-05-08T06:18:47.658Z,1.90
2023-05-08T06:21:14.436Z,1.70
2023-05-08T06:23:42.753Z,2.28
2023-05-08T06:26:09.711Z,2.35
2023-05-08T06:28:36.475Z,2.15
2023-05-08T06:31:03.588Z,2.55
2023-05-08T06:33:30.425Z,2.17
2023-05-08T06:35:57.069Z,2.15
2023-05-08T06:38:23.824Z,2.38
2023-05-08T06:40:50.730Z,2.78
2023-05-08T06:43:17.527Z,2.30
2023-05-08T06:45:45.410Z,2.72
2023-05-08T06:48:12.086Z,2.53
2023-05-08T06:50:40.666Z,2.72
2023-05-08T06:53:07.997Z,2.72
2023-05-08T06:55:34.834Z,2.70
2023-05-08T06:58:01.740Z,2.92
2023-05-08T07:00:28.484Z,2.70
2023-05-08T07:02:55.248Z,2.95
2023-05-08T07:05:22.318Z,2.30
2023-05-08T07:07:49.233Z,3.22
2023-05-08T07:10:16.798Z,2.88
2023-05-08T07:12:44.260Z,3.13
2023-05-08T07:15:24.713Z,3.30
2023-05-08T07:17:52.151Z,2.92
2023-05-08T07:20:18.945Z,3.08
2023-05-08T07:22:46.438Z,2.88
2023-05-08T07:25:13.441Z,2.83
2023-05-08T07:27:40.442Z,3.35
2023-05-08T07:30:07.933Z,3.13
2023-05-08T07:32:34.839Z,3.00
2023-05-08T07:35:02.887Z,2.85
2023-05-08T07:37:29.693Z,2.80
2023-05-08T07:39:56.407Z,2.53
2023-05-08T07:42:23.332Z,2.85
2023-05-08T07:44:54.785Z,2.38
2023-05-08T07:47:22.434Z,3.35
2023-05-08T07:49:49.205Z,2.92
2023-05-08T07:52:16.001Z,3.30
2023-05-08T07:54:43.779Z,3.72
2023-05-08T07:57:11.165Z,3.05
2023-05-08T07:59:37.888Z,3.53
2023-05-08T08:02:04.730Z,3.40
2023-05-08T08:04:31.572Z,3.65
2023-05-08T08:06:58.512Z,3.40
2023-05-08T08:09:25.647Z,3.72
2023-05-08T08:11:52.454Z,4.03
2023-05-08T08:14:19.200Z,4.25
2023-05-08T08:16:45.972Z,4.90
2023-05-08T08:19:12.745Z,3.70
2023-05-08T08:21:46.351Z,4.47
2023-05-08T08:24:13.567Z,4.05
2023-05-08T08:26:40.257Z,3.97
2023-05-08T08:29:07.090Z,4.45
2023-05-08T08:31:34.006Z,4.65
2023-05-08T08:34:00.817Z,4.13
2023-05-08T08:36:28.103Z,4.57
2023-05-08T08:38:54.754Z,4.40
2023-05-08T08:41:22.166Z,4.05
2023-05-08T08:43:49.044Z,4.53
2023-05-08T08:46:20.458Z,5.22
2023-05-08T08:48:47.637Z,5.28
2023-05-08T08:51:43.346Z,5.18
2023-05-08T08:54:13.371Z,5.38
2023-05-08T08:56:44.216Z,4.80
2023-05-08T08:59:13.196Z,4.80
2023-05-08T09:01:41.804Z,4.60
2023-05-08T09:04:09.168Z,4.93
2023-05-08T09:06:37.033Z,5.88
2023-05-08T09:09:05.018Z,4.13
2023-05-08T09:11:31.873Z,4.45
2023-05-08T09:13:59.117Z,4.80
2023-05-08T09:16:27.996Z,4.32
2023-05-08T09:18:54.920Z,5.18
2023-05-08T09:21:23.031Z,5.65
2023-05-08T09:24:02.775Z,4.78
2023-05-08T09:26:38.158Z,4.78
2023-05-08T09:29:19.169Z,4.95
2023-05-08T09:31:53.508Z,4.35
2023-05-08T09:34:29.366Z,4.05
2023-05-08T09:37:05.092Z,4.28
2023-05-08T09:39:32.162Z,3.85
2023-05-08T09:41:59.630Z,3.95
2023-05-08T09:44:26.447Z,3.05
2023-05-08T09:47:13.382Z,3.63
2023-05-08T09:49:40.718Z,3.28
2023-05-08T09:52:08.410Z,3.72
2023-05-08T09:54:35.224Z,3.30
2023-05-08T09:57:12.128Z,3.33
2023-05-08T09:59:38.888Z,2.88
2023-05-08T10:02:12.744Z,3.22
2023-05-08T10:04:39.631Z,2.97
2023-05-08T10:07:06.492Z,3.28
2023-05-08T10:09:46.713Z,3.13
2023-05-08T10:12:16.756Z,2.88
2023-05-08T10:14:46.366Z,2.60
2023-05-08T10:17:17.893Z,3.22
2023-05-08T10:19:48.341Z,2.60
2023-05-08T10:22:15.763Z,2.80
2023-05-08T10:24:45.436Z,3.20
2023-05-08T10:27:30.393Z,3.25
2023-05-08T10:30:04.337Z,2.60
2023-05-08T10:32:40.403Z,2.55
2023-05-08T10:35:10.714Z,2.88
2023-05-08T10:37:39.217Z,2.92
2023-05-08T10:40:06.981Z,2.65
2023-05-08T10:42:35.777Z,3.08
2023-05-08T10:45:05.220Z,2.30
2023-05-08T10:48:08.743Z,4.13
2023-05-08T10:51:06.324Z,3.33
2023-05-08T10:53:53.861Z,3.22
2023-05-08T10:56:27.286Z,2.63
2023-05-08T10:58:58.661Z,2.80
2023-05-08T11:01:26.629Z,3.30
2023-05-08T11:03:55.912Z,2.75
2023-05-08T11:06:43.144Z,2.63
2023-05-08T11:09:27.354Z,3.33
2023-05-08T11:12:18.505Z,3.72
2023-05-08T11:15:05.989Z,2.78
2023-05-08T11:17:33.517Z,3.92
2023-05-08T11:20:02.132Z,3.63
2023-05-08T11:22:30.782Z,2.70
2023-05-08T11:25:04.406Z,3.30
2023-05-08T11:27:48.137Z,3.55
2023-05-08T11:30:33.027Z,3.22
2023-05-08T11:33:14.413Z,2.90
2023-05-08T11:35:57.502Z,3.40
2023-05-08T11:38:36.382Z,3.40
2023-05-08T11:41:05.870Z,3.10
2023-05-08T11:43:32.726Z,3.95
2023-05-08T11:46:02.981Z,3.33
2023-05-08T11:48:30.347Z,4.55
2023-05-08T11:50:57.210Z,5.93
2023-05-08T11:53:23.918Z,6.03
2023-05-08T11:55:53.123Z,6.93
2023-05-08T11:58:23.335Z,7.47
2023-05-08T12:00:50.498Z,5.80
2023-05-08T12:03:19.413Z,6.93
2023-05-08T12:05:46.766Z,5.47
2023-05-08T12:08:14.802Z,5.70
2023-05-08T12:10:53.202Z,6.18
2023-05-08T12:13:21.169Z,5.35
2023-05-08T12:15:49.738Z,5.72
2023-05-08T12:18:17.203Z,4.97
2023-05-08T12:20:44.524Z,4.72
2023-05-08T12:23:11.270Z,4.90
2023-05-08T12:25:39.161Z,4.60
2023-05-08T12:28:12.155Z,4.25
2023-05-08T12:33:06.635Z,4.03
2023-05-08T12:35:33.688Z,3.28
2023-05-08T12:38:05.677Z,4.35
2023-05-08T12:40:33.898Z,3.92
2023-05-08T12:43:02.739Z,3.90
2023-05-08T12:45:36.720Z,3.72
2023-05-08T12:48:05.814Z,4.28
2023-05-08T12:50:37.975Z,3.90
2023-05-08T12:53:09.828Z,4.03
2023-05-08T12:55:38.175Z,3.38
2023-05-08T12:58:06.275Z,4.13
2023-05-08T13:00:51.422Z,4.22
2023-05-08T13:03:26.738Z,3.83
2023-05-08T13:05:56.533Z,4.05
2023-05-08T13:08:55.332Z,4.22
2023-05-08T13:11:33.179Z,4.07
2023-05-08T13:14:00.264Z,3.58
2023-05-08T13:16:27.172Z,3.53
2023-05-08T13:18:54.015Z,3.33
2023-05-08T13:21:20.780Z,4.10
2023-05-08T13:23:47.507Z,3.67
2023-05-08T13:26:14.250Z,3.67
2023-05-08T13:28:40.971Z,3.90
2023-05-08T13:31:07.703Z,4.35
2023-05-08T13:33:35.002Z,4.22
2023-05-08T13:36:01.871Z,4.07
2023-05-08T13:38:28.693Z,4.35
2023-05-08T13:40:55.481Z,4.18
2023-05-08T13:43:22.194Z,4.43
2023-05-08T13:45:48.908Z,4.60
2023-05-08T13:48:15.567Z,4.80
2023-05-08T13:50:42.512Z,4.72
2023-05-08T13:53:09.293Z,4.38
2023-05-08T13:55:36.925Z,4.30
2023-05-08T13:58:03.643Z,3.67
2023-05-08T14:00:30.549Z,3.90
2023-05-08T14:02:57.365Z,4.32
2023-05-08T14:05:24.176Z,4.25
2023-05-08T14:07:50.889Z,3.60
2023-05-08T14:10:17.708Z,3.75
2023-05-08T14:12:44.580Z,4.30
2023-05-08T14:15:12.078Z,4.18
2023-05-08T14:17:39.214Z,4.68
2023-05-08T14:20:06.667Z,3.90
2023-05-08T14:22:33.450Z,4.25
2023-05-08T14:25:00.169Z,4.30
2023-05-08T14:27:26.956Z,4.47
2023-05-08T14:29:54.162Z,4.35
2023-05-08T14:32:21.095Z,4.95
2023-05-08T14:34:47.922Z,4.57
2023-05-08T14:37:14.761Z,4.40
2023-05-08T14:39:41.404Z,3.75
2023-05-08T14:44:37.821Z,4.47
2023-05-08T14:47:04.674Z,4.93
2023-05-08T14:49:38.088Z,4.97
2023-05-08T14:52:36.792Z,4.15
2023-05-08T14:55:04.181Z,4.10
2023-05-08T14:57:31.347Z,8.57
2023-05-08T14:59:58.039Z,10.20
2023-05-08T15:02:24.806Z,9.45
2023-05-08T15:04:51.512Z,10.43
2023-05-08T15:07:18.291Z,9.90
2023-05-08T15:09:45.105Z,10.30
2023-05-08T15:12:11.851Z,9.82
2023-05-08T15:14:38.599Z,10.65
2023-05-08T15:17:05.282Z,9.18
2023-05-08T15:19:31.980Z,8.70
2023-05-08T15:21:58.743Z,7.57
2023-05-08T15:24:25.567Z,7.95
2023-05-08T15:26:52.220Z,8.23
2023-05-08T15:29:18.960Z,8.27
2023-05-08T15:31:45.852Z,9.23
2023-05-08T15:34:12.571Z,8.38
2023-05-08T15:36:39.364Z,10.15
2023-05-08T15:39:06.472Z,9.65
2023-05-08T15:41:34.118Z,10.32
2023-05-08T15:44:00.868Z,11.25
2023-05-08T15:46:27.592Z,11.75
2023-05-08T15:48:54.260Z,11.48
2023-05-08T15:51:20.991Z,11.52
2023-05-08T15:53:47.801Z,13.18
2023-05-08T15:56:14.550Z,13.05
2023-05-08T15:58:41.493Z,13.13
2023-05-08T16:01:08.617Z,12.93
2023-05-08T16:03:35.583Z,14.50
2023-05-08T16:06:02.403Z,12.25
2023-05-08T16:08:30.657Z,14.63
2023-05-08T16:10:57.277Z,13.68
2023-05-08T16:13:24.124Z,12.40
2023-05-08T16:15:51.131Z,13.50
2023-05-08T16:18:17.880Z,13.52
2023-05-08T16:20:44.640Z,12.98
2023-05-08T16:23:11.369Z,11.70
2023-05-08T16:25:38.208Z,11.27
2023-05-08T16:28:04.953Z,9.75
2023-05-08T16:30:31.694Z,8.43
2023-05-08T16:32:58.495Z,8.57
2023-05-08T16:35:25.364Z,8.40
2023-05-08T16:37:52.114Z,8.85
2023-05-08T16:40:18.843Z,8.57
2023-05-08T16:42:45.509Z,8.80
2023-05-08T16:45:12.858Z,8.68
2023-05-08T16:47:40.040Z,8.65
2023-05-08T16:50:07.445Z,9.23
2023-05-08T16:52:34.379Z,6.80
2023-05-08T16:55:01.188Z,7.25
2023-05-08T16:57:27.945Z,7.15
2023-05-08T16:59:54.974Z,6.47
2023-05-08T17:02:21.977Z,7.03
2023-05-08T17:04:49.601Z,6.55
2023-05-08T17:07:17.362Z,6.78
2023-05-08T17:09:44.839Z,6.45
2023-05-08T17:12:11.696Z,5.82
2023-05-08T17:14:40.267Z,5.63
2023-05-08T17:17:07.271Z,6.07
2023-05-08T17:19:34.062Z,6.47
2023-05-08T17:22:00.950Z,5.28
2023-05-08T17:24:30.661Z,5.03
2023-05-08T17:26:57.549Z,5.40
2023-05-08T17:29:24.694Z,5.85
2023-05-08T17:31:51.429Z,6.38
2023-05-08T17:34:18.255Z,5.35
2023-05-08T17:36:45.041Z,5.15
2023-05-08T17:39:12.492Z,5.63
2023-05-08T17:41:39.301Z,5.47
2023-05-08T17:44:06.036Z,4.75
2023-05-08T17:46:32.998Z,5.63
2023-05-08T17:48:59.713Z,5.28
2023-05-08T17:51:26.425Z,5.93
2023-05-08T17:53:53.184Z,5.53
2023-05-08T17:56:21.157Z,5.20
2023-05-08T17:58:47.873Z,4.93
2023-05-08T18:01:14.867Z,4.78
2023-05-08T18:03:41.973Z,4.30
2023-05-08T18:06:08.769Z,5.95
2023-05-08T18:08:35.554Z,5.18
2023-05-08T18:11:02.290Z,4.82
2023-05-08T18:13:29.152Z,4.22
2023-05-08T18:15:55.920Z,5.20
2023-05-08T18:18:23.025Z,4.25
2023-05-08T18:20:49.839Z,4.07
2023-05-08T18:23:16.558Z,4.45
2023-05-08T18:25:43.724Z,4.70
2023-05-08T18:28:10.448Z,4.28
2023-05-08T18:30:40.030Z,4.47
2023-05-08T18:33:06.860Z,3.90
2023-05-08T18:35:33.635Z,4.55
2023-05-08T18:38:00.440Z,3.67
2023-05-08T18:40:27.213Z,4.18
2023-05-08T18:42:53.955Z,4.28
2023-05-08T18:45:20.985Z,3.90
2023-05-08T18:47:48.148Z,3.75
2023-05-08T18:50:15.290Z,4.03
2023-05-08T18:52:42.216Z,3.80
2023-05-08T18:55:09.444Z,4.18
2023-05-08T18:57:36.247Z,3.70
2023-05-08T19:00:04.037Z,2.70
2023-05-08T19:02:31.355Z,3.15
2023-05-08T19:04:58.852Z,3.78
2023-05-08T19:07:25.639Z,3.40
2023-05-08T19:09:54.948Z,3.40
2023-05-08T19:12:21.723Z,2.90
2023-05-08T19:14:50.244Z,3.60
2023-05-08T19:17:17.375Z,3.40
2023-05-08T19:19:44.629Z,2.90
2023-05-08T19:22:11.357Z,3.03
2023-05-08T19:24:38.184Z,3.63
2023-05-08T19:27:04.906Z,2.72
2023-05-08T19:29:33.628Z,2.80
2023-05-08T19:32:02.208Z,2.75
2023-05-08T19:34:28.957Z,2.53
2023-05-08T19:36:55.657Z,2.90
2023-05-08T19:39:22.365Z,2.88
2023-05-08T19:41:49.063Z,2.72
2023-05-08T19:44:15.767Z,3.15
2023-05-08T19:46:43.413Z,2.75
2023-05-08T19:49:10.174Z,2.25
2023-05-08T19:51:36.874Z,2.28
2023-05-08T19:54:03.659Z,2.22
2023-05-08T19:56:30.369Z,2.50
2023-05-08T19:58:58.204Z,2.35
2023-05-08T20:01:25.016Z,2.63
2023-05-08T20:03:51.855Z,2.00
2023-05-08T20:06:18.689Z,2.33
2023-05-08T20:08:45.523Z,2.22
2023-05-08T20:11:12.280Z,2.45
2023-05-08T20:13:39.458Z,2.47
2023-05-08T20:16:06.456Z,2.25
2023-05-08T20:18:34.633Z,1.88
2023-05-08T20:21:01.369Z,1.92
2023-05-08T20:23:28.088Z,2.10
2023-05-08T20:25:54.897Z,2.35
2023-05-08T20:28:25.074Z,1.70
2023-05-08T20:30:52.449Z,1.90
2023-05-08T20:33:20.052Z,2.20
2023-05-08T20:35:46.893Z,2.03
2023-05-08T20:38:14.805Z,2.13
2023-05-08T20:40:41.880Z,1.52
2023-05-08T20:43:09.389Z,2.63
2023-05-08T20:45:36.363Z,2.00
2023-05-08T20:48:03.471Z,1.55
2023-05-08T20:50:30.371Z,1.55
2023-05-08T20:52:57.137Z,2.13
2023-05-08T20:55:23.932Z,1.50
2023-05-08T20:57:50.678Z,1.95
2023-05-08T21:00:17.759Z,1.58
2023-05-08T21:02:44.675Z,1.50
2023-05-08T21:05:11.496Z,1.60
2023-05-08T21:07:38.897Z,1.95
2023-05-08T21:10:06.051Z,1.83
2023-05-08T21:12:32.774Z,1.88
2023-05-08T21:14:59.526Z,1.48
2023-05-08T21:17:26.387Z,1.70
2023-05-08T21:19:53.117Z,1.30
2023-05-08T21:22:19.956Z,1.85
2023-05-08T21:24:46.709Z,1.63
2023-05-08T21:30:15.093Z,2.38
2023-05-08T21:32:43.401Z,1.70
2023-05-08T21:35:11.582Z,1.83
2023-05-08T21:37:39.284Z,2.25
2023-05-08T21:40:06.594Z,1.25
2023-05-08T21:42:33.423Z,1.95
2023-05-08T21:45:00.167Z,2.00
2023-05-08T21:47:30.053Z,1.38
2023-05-08T21:49:57.285Z,2.00
2023-05-08T21:52:25.648Z,1.85
2023-05-08T21:54:52.731Z,1.30
2023-05-08T21:57:19.629Z,1.58
2023-05-08T21:59:46.486Z,1.10
2023-05-08T22:02:13.231Z,1.23
2023-05-08T22:04:40.024Z,1.95
2023-05-08T22:07:06.738Z,1.38
2023-05-08T22:09:34.776Z,1.30
2023-05-08T22:12:01.486Z,1.42
2023-05-08T22:14:28.211Z,1.17
2023-05-08T22:16:55.042Z,1.17
2023-05-08T22:19:21.784Z,1.17
2023-05-08T22:21:48.465Z,1.27
2023-05-08T22:24:15.317Z,1.15
2023-05-08T22:26:42.192Z,1.50
2023-05-08T22:29:08.867Z,1.48
2023-05-08T22:31:35.838Z,0.98
2023-05-08T22:34:02.888Z,1.65
2023-05-08T22:36:29.654Z,1.33
2023-05-08T22:38:56.331Z,1.20
2023-05-08T22:41:23.666Z,1.40
2023-05-08T22:43:50.510Z,1.70
2023-05-08T22:46:18.290Z,1.35
2023-05-08T22:48:45.752Z,1.15
2023-05-08T22:51:12.615Z,1.40
2023-05-08T22:53:39.348Z,1.30
2023-05-08T22:56:06.276Z,1.35
2023-05-08T22:58:33.040Z,1.40
2023-05-08T23:00:59.922Z,1.35
2023-05-08T23:03:26.933Z,1.10
2023-05-08T23:05:53.697Z,1.17
2023-05-08T23:08:22.056Z,1.23
2023-05-08T23:10:49.206Z,1.55
2023-05-08T23:13:15.961Z,1.33
2023-05-08T23:15:43.082Z,1.48
2023-05-08T23:18:09.869Z,1.42
2023-05-08T23:20:36.635Z,0.90
2023-05-08T23:23:03.415Z,1.65
2023-05-08T23:25:30.184Z,1.20
2023-05-08T23:27:56.982Z,1.58
2023-05-08T23:30:23.728Z,1.48
2023-05-08T23:32:50.513Z,1.40
2023-05-08T23:35:17.464Z,1.85
2023-05-08T23:37:44.209Z,1.73
2023-05-08T23:40:11.340Z,1.35
2023-05-08T23:42:38.154Z,1.58
2023-05-08T23:45:06.474Z,1.55
2023-05-08T23:47:33.659Z,1.25
2023-05-08T23:50:00.964Z,1.52
2023-05-08T23:52:27.736Z,1.73
2023-05-08T23:54:54.452Z,1.20
2023-05-08T23:57:22.809Z,1.15
2023-05-08T23:59:49.608Z,1.52
